ENHV/HVG METAR and TAF weather

Enter ICAO airport designator
Station Type Date Time Source
ENHV METAR 2020/05/29 19:50 UTC NOAA

ENHV 291950Z 26011KT 9999 -SHRA VV033 06/04 Q1023


Station Type Date Time Source
ENHV Decoded METAR 2020/05/29 19:50 UTC NOAA

Honningsvag / Valan, Norway (ENHV) 71-01N 025-59E 14M
May 29, 2020 - 03:50 PM EDT / 2020.05.29 1950 UTC
Wind: from the W (260 degrees) at 13 MPH (11 KT):0
Visibility: greater than 7 mile(s):0
Sky conditions: obscured
Weather: light rain showers
Temperature: 42 F (6 C)
Dew Point: 39 F (4 C)
Relative Humidity: 86%
Pressure (altimeter): 30.21 in. Hg (1023 hPa)
ob: ENHV 291950Z 26011KT 9999 -SHRA VV033 06/04 Q1023
cycle: 20

Station Type Date Time Source
ENHV TAF UTC NOAA

Error!

Example: see airport list